createdAt,value
2023-02-09T00:03:01.056Z,21.73
2023-02-09T00:08:03.581Z,21.67
2023-02-09T00:13:23.808Z,23.13
2023-02-09T00:18:26.445Z,26.10
2023-02-09T00:23:30.376Z,22.42
2023-02-09T00:28:32.774Z,21.08
2023-02-09T00:33:34.984Z,19.48
2023-02-09T00:38:37.167Z,23.58
2023-02-09T00:43:39.324Z,18.45
2023-02-09T00:48:41.414Z,21.67
2023-02-09T00:53:43.517Z,20.88
2023-02-09T00:58:45.700Z,16.55
2023-02-09T01:03:47.794Z,23.58
2023-02-09T01:08:50.926Z,15.25
2023-02-09T01:13:54.371Z,14.20
2023-02-09T01:18:56.546Z,18.90
2023-02-09T01:23:59.462Z,20.30
2023-02-09T01:29:01.690Z,22.67
2023-02-09T01:34:05.787Z,18.05
2023-02-09T01:39:08.654Z,19.42
2023-02-09T01:44:17.232Z,11.18
2023-02-09T01:49:26.362Z,22.05
2023-02-09T01:54:51.545Z,22.10
2023-02-09T02:00:00.864Z,16.02
2023-02-09T02:05:08.154Z,15.27
2023-02-09T02:10:10.564Z,18.70
2023-02-09T02:15:13.055Z,18.17
2023-02-09T02:20:27.943Z,21.52
2023-02-09T02:25:48.661Z,19.17
2023-02-09T02:31:05.823Z,19.05
2023-02-09T02:36:22.880Z,24.23
2023-02-09T02:41:58.149Z,17.48
2023-02-09T02:47:03.704Z,21.88
2023-02-09T02:52:09.604Z,17.02
2023-02-09T02:57:22.596Z,17.77
2023-02-09T03:02:37.008Z,16.45
2023-02-09T03:07:39.996Z,19.25
2023-02-09T03:13:01.607Z,15.38
2023-02-09T03:18:28.818Z,15.43
2023-02-09T03:23:48.779Z,10.68
2023-02-09T03:28:55.805Z,16.13
2023-02-09T03:33:59.681Z,14.35
2023-02-09T03:39:02.326Z,17.02
2023-02-09T03:44:22.936Z,12.98
2023-02-09T03:49:27.652Z,15.93
2023-02-09T03:54:31.581Z,13.45
2023-02-09T03:59:37.770Z,13.55
2023-02-09T04:04:40.145Z,12.38
2023-02-09T04:09:42.354Z,16.13
2023-02-09T04:14:44.605Z,14.77
2023-02-09T04:19:46.848Z,11.75
2023-02-09T04:24:49.043Z,10.00
2023-02-09T04:29:51.254Z,9.70
2023-02-09T04:34:53.460Z,10.90
2023-02-09T04:39:55.658Z,12.88
2023-02-09T04:44:58.222Z,11.35
2023-02-09T04:50:00.447Z,9.85
2023-02-09T04:55:02.798Z,14.30
2023-02-09T05:00:05.710Z,9.73
2023-02-09T05:05:08.058Z,14.80
2023-02-09T05:10:10.405Z,15.95
2023-02-09T05:15:12.648Z,9.43
2023-02-09T05:20:14.946Z,16.65
2023-02-09T05:25:17.325Z,10.02
2023-02-09T05:30:19.602Z,10.50
2023-02-09T05:35:21.987Z,9.25
2023-02-09T05:40:24.218Z,9.80
2023-02-09T05:45:26.504Z,10.52
2023-02-09T05:50:29.236Z,12.65
2023-02-09T05:55:31.311Z,11.05
2023-02-09T06:00:33.448Z,19.38
2023-02-09T06:05:35.630Z,11.50
2023-02-09T06:10:37.782Z,11.25
2023-02-09T06:15:39.983Z,10.80
2023-02-09T06:20:42.132Z,18.75
2023-02-09T06:25:44.316Z,12.93
2023-02-09T06:30:52.231Z,11.68
2023-02-09T06:35:54.786Z,8.60
2023-02-09T06:40:56.921Z,11.23
2023-02-09T06:45:59.179Z,18.33
2023-02-09T06:51:01.719Z,15.75
2023-02-09T06:56:04.330Z,10.27
2023-02-09T07:01:09.367Z,13.05
2023-02-09T07:06:15.702Z,15.30
2023-02-09T07:11:19.425Z,12.23
2023-02-09T07:16:21.735Z,19.83
2023-02-09T07:21:23.941Z,14.23
2023-02-09T07:26:26.102Z,12.10
2023-02-09T07:31:29.244Z,11.43
2023-02-09T07:36:31.793Z,9.73
2023-02-09T07:41:34.133Z,13.13
2023-02-09T07:46:36.554Z,10.95
2023-02-09T07:51:39.581Z,11.35
2023-02-09T07:56:42.245Z,15.05
2023-02-09T08:01:44.439Z,9.77
2023-02-09T08:06:47.127Z,12.15
2023-02-09T08:11:57.503Z,15.43
2023-02-09T08:17:21.147Z,14.55
2023-02-09T08:22:25.306Z,14.05
2023-02-09T08:27:27.955Z,13.90
2023-02-09T08:32:30.162Z,9.45
2023-02-09T08:37:32.897Z,12.23
2023-02-09T08:42:35.374Z,11.65
2023-02-09T08:47:37.581Z,19.08
2023-02-09T08:52:39.881Z,13.88
2023-02-09T08:57:44.585Z,11.80
2023-02-09T09:02:46.988Z,13.10
2023-02-09T09:07:49.308Z,18.15
2023-02-09T09:12:52.470Z,25.33
2023-02-09T09:17:55.054Z,18.83
2023-02-09T09:22:59.591Z,28.60
2023-02-09T09:28:02.004Z,21.65
2023-02-09T09:33:04.841Z,28.23
2023-02-09T09:38:07.021Z,16.20
2023-02-09T09:43:21.271Z,15.75
2023-02-09T09:48:26.690Z,13.73
2023-02-09T09:53:35.666Z,12.05
2023-02-09T09:58:42.295Z,31.75
2023-02-09T10:03:45.685Z,11.30
2023-02-09T10:09:06.625Z,15.25
2023-02-09T10:14:10.856Z,15.80
2023-02-09T10:19:30.474Z,16.30
2023-02-09T10:24:35.429Z,12.40
2023-02-09T10:29:38.376Z,11.85
2023-02-09T10:34:54.484Z,18.42
2023-02-09T10:40:06.433Z,11.35
2023-02-09T10:45:27.420Z,12.43
2023-02-09T10:50:30.545Z,9.75
2023-02-09T10:55:40.113Z,11.55
2023-02-09T11:00:48.327Z,8.80
2023-02-09T11:06:16.473Z,8.27
2023-02-09T11:11:31.134Z,6.28
2023-02-09T11:16:44.481Z,13.02
2023-02-09T11:22:19.409Z,11.85
2023-02-09T11:27:44.853Z,10.90
2023-02-09T11:32:53.923Z,10.30
2023-02-09T11:38:02.117Z,10.90
2023-02-09T11:43:11.302Z,12.77
2023-02-09T11:48:19.925Z,10.32
2023-02-09T11:53:47.304Z,16.13
2023-02-09T11:59:19.060Z,12.73
2023-02-09T12:04:47.915Z,7.25
2023-02-09T12:10:03.107Z,10.10
2023-02-09T12:15:29.521Z,10.02
2023-02-09T12:20:46.195Z,6.13
2023-02-09T12:25:57.615Z,5.28
2023-02-09T12:31:07.234Z,6.63
2023-02-09T12:36:09.957Z,6.68
2023-02-09T12:41:13.672Z,10.57
2023-02-09T12:46:56.977Z,10.02
2023-02-09T12:52:02.896Z,7.15
2023-02-09T12:57:18.917Z,8.32
2023-02-09T13:02:30.354Z,8.52
2023-02-09T13:07:54.247Z,9.75
2023-02-09T13:13:17.702Z,9.93
2023-02-09T13:18:29.293Z,9.68
2023-02-09T13:24:04.469Z,8.32
2023-02-09T13:29:21.479Z,8.40
2023-02-09T13:34:34.185Z,13.57
2023-02-09T13:39:40.686Z,12.02
2023-02-09T13:44:45.462Z,10.77
2023-02-09T13:49:57.955Z,7.32
2023-02-09T13:55:09.142Z,5.68
2023-02-09T14:00:23.429Z,9.25
2023-02-09T14:05:32.566Z,16.48
2023-02-09T14:10:35.721Z,6.30
2023-02-09T14:16:04.421Z,4.40
2023-02-09T14:21:15.382Z,5.85
2023-02-09T14:26:22.785Z,10.55
2023-02-09T14:31:26.293Z,16.67
2023-02-09T14:36:34.325Z,4.82
2023-02-09T14:41:36.648Z,7.28
2023-02-09T14:46:49.404Z,13.23
2023-02-09T14:52:02.271Z,9.73
2023-02-09T14:57:04.528Z,12.38
2023-02-09T15:02:18.047Z,12.60
2023-02-09T15:07:33.094Z,10.00
2023-02-09T15:12:35.217Z,10.27
2023-02-09T15:17:37.405Z,8.85
2023-02-09T15:22:39.470Z,18.27
2023-02-09T15:27:42.086Z,7.20
2023-02-09T15:32:44.883Z,13.95
2023-02-09T15:37:49.949Z,13.60
2023-02-09T15:43:10.427Z,7.05
2023-02-09T15:48:13.215Z,19.98
2023-02-09T15:53:18.773Z,13.70
2023-02-09T15:58:37.291Z,10.23
2023-02-09T16:03:39.588Z,9.23
2023-02-09T16:08:44.374Z,13.10
2023-02-09T16:13:46.788Z,6.72
2023-02-09T16:18:48.929Z,12.55
2023-02-09T16:23:54.514Z,6.00
2023-02-09T16:28:57.244Z,10.25
2023-02-09T16:33:59.357Z,4.32
2023-02-09T16:39:01.484Z,7.97
2023-02-09T16:44:33.148Z,3.58
2023-02-09T16:49:44.513Z,8.75
2023-02-09T16:54:52.392Z,10.07
2023-02-09T16:59:55.156Z,6.68
2023-02-09T17:04:58.166Z,25.08
2023-02-09T17:10:02.043Z,10.90
2023-02-09T17:15:04.458Z,6.93
2023-02-09T17:20:06.676Z,4.70
2023-02-09T17:25:20.827Z,11.45
2023-02-09T17:30:23.237Z,6.45
2023-02-09T17:35:47.979Z,9.20
2023-02-09T17:40:47.486Z,12.85
2023-02-09T17:45:51.526Z,18.30
2023-02-09T17:50:57.994Z,15.13
2023-02-09T17:56:01.023Z,7.93
2023-02-09T18:01:26.355Z,24.35
2023-02-09T18:06:39.913Z,20.85
2023-02-09T18:12:03.352Z,38.72
2023-02-09T18:17:05.509Z,22.77
2023-02-09T18:22:10.277Z,22.00
2023-02-09T18:27:18.403Z,13.07
2023-02-09T18:32:21.447Z,16.92
2023-02-09T18:37:23.943Z,14.80
2023-02-09T18:42:26.040Z,14.13
2023-02-09T18:47:28.286Z,12.38
2023-02-09T18:52:30.679Z,13.95
2023-02-09T18:57:32.831Z,18.38
2023-02-09T19:02:35.081Z,13.57
2023-02-09T19:07:37.326Z,10.20
2023-02-09T19:12:40.243Z,29.08
2023-02-09T19:17:42.741Z,10.95
2023-02-09T19:22:47.482Z,11.68
2023-02-09T19:27:49.622Z,17.25
2023-02-09T19:32:52.943Z,31.25
2023-02-09T19:37:57.625Z,32.97
2023-02-09T19:42:59.728Z,19.63
2023-02-09T19:48:03.960Z,27.25
2023-02-09T19:53:07.029Z,22.80
2023-02-09T19:58:09.178Z,22.45
2023-02-09T20:03:14.467Z,15.88
2023-02-09T20:08:19.067Z,21.70
2023-02-09T20:18:23.230Z,15.23
2023-02-09T20:23:25.429Z,15.25
2023-02-09T20:28:27.725Z,13.25
2023-02-09T20:33:29.817Z,16.27
2023-02-09T20:38:32.206Z,11.55
2023-02-09T20:43:52.912Z,21.23
2023-02-09T20:48:55.082Z,22.33
2023-02-09T20:53:57.238Z,23.52
2023-02-09T20:58:59.575Z,21.67
2023-02-09T21:04:02.013Z,20.63
2023-02-09T21:09:06.378Z,18.30
2023-02-09T21:14:21.548Z,24.48
2023-02-09T21:19:30.615Z,25.80
2023-02-09T21:24:33.325Z,28.92
2023-02-09T21:29:36.590Z,27.88
2023-02-09T21:34:38.820Z,27.95
2023-02-09T21:39:41.142Z,24.05
2023-02-09T21:44:43.813Z,21.10
2023-02-09T21:49:46.189Z,19.63
2023-02-09T21:54:48.384Z,25.85
2023-02-09T21:59:50.608Z,25.52
2023-02-09T22:04:53.148Z,28.80
2023-02-09T22:09:55.472Z,30.83
2023-02-09T22:14:57.618Z,26.00
2023-02-09T22:19:59.724Z,20.02
2023-02-09T22:25:01.896Z,22.70
2023-02-09T22:30:05.424Z,14.15
2023-02-09T22:35:09.254Z,21.63
2023-02-09T22:40:11.639Z,23.65
2023-02-09T22:45:13.792Z,22.00
2023-02-09T22:50:16.196Z,19.48
2023-02-09T22:55:18.326Z,22.50
2023-02-09T23:00:20.539Z,20.10
2023-02-09T23:05:22.717Z,15.10
2023-02-09T23:10:24.864Z,17.25
2023-02-09T23:15:27.028Z,11.95
2023-02-09T23:20:29.169Z,8.98
2023-02-09T23:25:31.313Z,16.23
2023-02-09T23:30:34.471Z,10.77
2023-02-09T23:35:39.423Z,13.35
2023-02-09T23:40:41.665Z,11.07
2023-02-09T23:45:43.817Z,6.60
2023-02-09T23:50:45.916Z,13.10
2023-02-09T23:55:52.618Z,19.75
